sensor_id;sensor_type;location;lat;lon;timestamp;temperature;humidity
29575;DHT22;16507;51.046;6.406;2022-10-31T00:02:17;13.50;99.90
29575;DHT22;16507;51.046;6.406;2022-10-31T00:04:42;13.40;99.90
29575;DHT22;16507;51.046;6.406;2022-10-31T00:07:08;13.50;99.90
29575;DHT22;16507;51.046;6.406;2022-10-31T00:09:33;13.50;99.90
29575;DHT22;16507;51.046;6.406;2022-10-31T00:11:59;13.50;99.90
29575;DHT22;16507;51.046;6.406;2022-10-31T00:14:24;13.60;99.90
29575;DHT22;16507;51.046;6.406;2022-10-31T00:16:50;13.60;99.90
29575;DHT22;16507;51.046;6.406;2022-10-31T00:19:15;13.70;99.90
29575;DHT22;16507;51.046;6.406;2022-10-31T00:21:41;13.70;99.90
29575;DHT22;16507;51.046;6.406;2022-10-31T00:24:07;13.80;99.90
29575;DHT22;16507;51.046;6.406;2022-10-31T00:26:32;13.90;99.90
29575;DHT22;16507;51.046;6.406;2022-10-31T00:28:59;14.00;99.90
29575;DHT22;16507;51.046;6.406;2022-10-31T00:31:25;14.00;99.90
29575;DHT22;16507;51.046;6.406;2022-10-31T00:33:50;14.00;99.90
29575;DHT22;16507;51.046;6.406;2022-10-31T00:36:18;14.10;99.90
29575;DHT22;16507;51.046;6.406;2022-10-31T00:38:45;14.00;99.90
29575;DHT22;16507;51.046;6.406;2022-10-31T00:41:12;14.00;99.90
29575;DHT22;16507;51.046;6.406;2022-10-31T00:43:37;14.00;99.90
29575;DHT22;16507;51.046;6.406;2022-10-31T00:46:03;14.00;99.90
29575;DHT22;16507;51.046;6.406;2022-10-31T00:48:29;13.90;99.90
29575;DHT22;16507;51.046;6.406;2022-10-31T00:50:55;13.80;99.90
29575;DHT22;16507;51.046;6.406;2022-10-31T00:53:21;13.80;99.90
29575;DHT22;16507;51.046;6.406;2022-10-31T00:55:46;13.90;99.90
29575;DHT22;16507;51.046;6.406;2022-10-31T00:58:12;13.80;99.90
29575;DHT22;16507;51.046;6.406;2022-10-31T01:00:38;13.80;99.90
29575;DHT22;16507;51.046;6.406;2022-10-31T01:03:04;13.70;99.90
29575;DHT22;16507;51.046;6.406;2022-10-31T01:05:29;13.70;99.90
29575;DHT22;16507;51.046;6.406;2022-10-31T01:07:55;13.60;99.90
29575;DHT22;16507;51.046;6.406;2022-10-31T01:10:21;13.60;99.90
29575;DHT22;16507;51.046;6.406;2022-10-31T01:12:48;13.60;99.90
29575;DHT22;16507;51.046;6.406;2022-10-31T01:15:20;13.60;99.90
29575;DHT22;16507;51.046;6.406;2022-10-31T01:17:46;13.60;99.90
29575;DHT22;16507;51.046;6.406;2022-10-31T01:20:13;13.40;99.90
29575;DHT22;16507;51.046;6.406;2022-10-31T01:22:39;13.40;99.90
29575;DHT22;16507;51.046;6.406;2022-10-31T01:25:05;13.30;99.90
29575;DHT22;16507;51.046;6.406;2022-10-31T01:27:31;13.10;99.90
29575;DHT22;16507;51.046;6.406;2022-10-31T01:29:57;13.00;99.90
29575;DHT22;16507;51.046;6.406;2022-10-31T01:32:23;13.00;99.90
29575;DHT22;16507;51.046;6.406;2022-10-31T01:34:49;12.90;99.90
29575;DHT22;16507;51.046;6.406;2022-10-31T01:37:14;12.70;99.90
29575;DHT22;16507;51.046;6.406;2022-10-31T01:39:40;12.70;99.90
29575;DHT22;16507;51.046;6.406;2022-10-31T01:42:06;12.60;99.90
29575;DHT22;16507;51.046;6.406;2022-10-31T01:47:04;12.20;99.90
29575;DHT22;16507;51.046;6.406;2022-10-31T01:49:40;12.20;99.90
29575;DHT22;16507;51.046;6.406;2022-10-31T01:52:17;12.10;99.90
29575;DHT22;16507;51.046;6.406;2022-10-31T01:54:48;11.90;99.90
29575;DHT22;16507;51.046;6.406;2022-10-31T01:57:17;12.00;99.90
29575;DHT22;16507;51.046;6.406;2022-10-31T01:59:48;12.00;99.90
29575;DHT22;16507;51.046;6.406;2022-10-31T02:02:15;12.00;99.90
29575;DHT22;16507;51.046;6.406;2022-10-31T02:04:41;12.00;99.90
29575;DHT22;16507;51.046;6.406;2022-10-31T02:07:12;12.00;99.90
29575;DHT22;16507;51.046;6.406;2022-10-31T02:09:40;11.80;99.90
29575;DHT22;16507;51.046;6.406;2022-10-31T02:12:06;11.80;99.90
29575;DHT22;16507;51.046;6.406;2022-10-31T02:14:35;11.70;99.90
29575;DHT22;16507;51.046;6.406;2022-10-31T02:17:01;11.80;99.90
29575;DHT22;16507;51.046;6.406;2022-10-31T02:19:41;11.90;99.90
29575;DHT22;16507;51.046;6.406;2022-10-31T02:22:26;12.00;99.90
29575;DHT22;16507;51.046;6.406;2022-10-31T02:33:26;12.40;99.90
29575;DHT22;16507;51.046;6.406;2022-10-31T02:36:04;12.40;99.90
29575;DHT22;16507;51.046;6.406;2022-10-31T02:38:54;12.40;99.90
29575;DHT22;16507;51.046;6.406;2022-10-31T02:41:34;12.40;99.90
29575;DHT22;16507;51.046;6.406;2022-10-31T02:44:16;12.30;99.90
29575;DHT22;16507;51.046;6.406;2022-10-31T02:49:23;12.30;99.90
29575;DHT22;16507;51.046;6.406;2022-10-31T02:51:51;12.30;99.90
29575;DHT22;16507;51.046;6.406;2022-10-31T02:54:22;12.20;99.90
29575;DHT22;16507;51.046;6.406;2022-10-31T02:56:49;12.30;99.90
29575;DHT22;16507;51.046;6.406;2022-10-31T02:59:16;12.50;99.90
29575;DHT22;16507;51.046;6.406;2022-10-31T03:02:05;12.40;99.90
29575;DHT22;16507;51.046;6.406;2022-10-31T03:10:55;12.50;99.90
29575;DHT22;16507;51.046;6.406;2022-10-31T03:13:01;12.50;99.90
29575;DHT22;16507;51.046;6.406;2022-10-31T03:15:45;12.40;99.90
29575;DHT22;16507;51.046;6.406;2022-10-31T03:18:17;12.40;99.90
29575;DHT22;16507;51.046;6.406;2022-10-31T03:20:58;12.60;99.90
29575;DHT22;16507;51.046;6.406;2022-10-31T03:23:26;12.60;99.90
29575;DHT22;16507;51.046;6.406;2022-10-31T03:25:54;12.50;99.90
29575;DHT22;16507;51.046;6.406;2022-10-31T03:28:27;12.50;99.90
29575;DHT22;16507;51.046;6.406;2022-10-31T03:30:54;12.50;99.90
29575;DHT22;16507;51.046;6.406;2022-10-31T03:33:31;12.40;99.90
29575;DHT22;16507;51.046;6.406;2022-10-31T03:36:02;12.20;99.90
29575;DHT22;16507;51.046;6.406;2022-10-31T03:38:29;12.30;99.90
29575;DHT22;16507;51.046;6.406;2022-10-31T03:40:58;12.20;99.90
29575;DHT22;16507;51.046;6.406;2022-10-31T03:43:30;12.10;99.90
29575;DHT22;16507;51.046;6.406;2022-10-31T03:45:57;11.90;99.90
29575;DHT22;16507;51.046;6.406;2022-10-31T03:48:24;11.90;99.90
29575;DHT22;16507;51.046;6.406;2022-10-31T03:51:15;11.90;99.90
29575;DHT22;16507;51.046;6.406;2022-10-31T03:53:56;11.80;99.90
29575;DHT22;16507;51.046;6.406;2022-10-31T03:56:38;11.80;99.90
29575;DHT22;16507;51.046;6.406;2022-10-31T04:01:50;11.60;99.90
29575;DHT22;16507;51.046;6.406;2022-10-31T04:04:18;11.60;99.90
29575;DHT22;16507;51.046;6.406;2022-10-31T04:06:46;11.70;99.90
29575;DHT22;16507;51.046;6.406;2022-10-31T04:09:13;11.70;99.90
29575;DHT22;16507;51.046;6.406;2022-10-31T04:11:48;11.60;99.90
29575;DHT22;16507;51.046;6.406;2022-10-31T04:14:14;11.70;99.90
29575;DHT22;16507;51.046;6.406;2022-10-31T04:16:42;11.60;99.90
29575;DHT22;16507;51.046;6.406;2022-10-31T04:19:10;11.60;99.90
29575;DHT22;16507;51.046;6.406;2022-10-31T04:21:35;11.50;99.90
29575;DHT22;16507;51.046;6.406;2022-10-31T04:24:01;11.50;99.90
29575;DHT22;16507;51.046;6.406;2022-10-31T04:26:26;11.40;99.90
29575;DHT22;16507;51.046;6.406;2022-10-31T04:28:52;11.40;99.90
29575;DHT22;16507;51.046;6.406;2022-10-31T04:31:18;11.30;99.90
29575;DHT22;16507;51.046;6.406;2022-10-31T04:33:43;11.40;99.90
29575;DHT22;16507;51.046;6.406;2022-10-31T04:36:09;11.40;99.90
29575;DHT22;16507;51.046;6.406;2022-10-31T04:38:35;11.40;99.90
29575;DHT22;16507;51.046;6.406;2022-10-31T04:41:00;11.30;99.90
29575;DHT22;16507;51.046;6.406;2022-10-31T04:43:26;11.40;99.90
29575;DHT22;16507;51.046;6.406;2022-10-31T04:45:52;11.40;99.90
29575;DHT22;16507;51.046;6.406;2022-10-31T04:48:17;11.50;99.90
29575;DHT22;16507;51.046;6.406;2022-10-31T04:50:43;11.40;99.90
29575;DHT22;16507;51.046;6.406;2022-10-31T04:53:08;11.40;99.90
29575;DHT22;16507;51.046;6.406;2022-10-31T04:55:35;11.50;99.90
29575;DHT22;16507;51.046;6.406;2022-10-31T04:58:01;11.40;99.90
29575;DHT22;16507;51.046;6.406;2022-10-31T05:00:27;11.30;99.90
29575;DHT22;16507;51.046;6.406;2022-10-31T05:02:54;11.30;99.90
29575;DHT22;16507;51.046;6.406;2022-10-31T05:05:22;11.30;99.90
29575;DHT22;16507;51.046;6.406;2022-10-31T05:07:49;11.30;99.90
29575;DHT22;16507;51.046;6.406;2022-10-31T05:10:17;11.20;99.90
29575;DHT22;16507;51.046;6.406;2022-10-31T05:12:52;11.30;99.90
29575;DHT22;16507;51.046;6.406;2022-10-31T05:15:19;11.30;99.90
29575;DHT22;16507;51.046;6.406;2022-10-31T05:17:44;11.30;99.90
29575;DHT22;16507;51.046;6.406;2022-10-31T05:20:12;11.20;99.90
29575;DHT22;16507;51.046;6.406;2022-10-31T05:22:45;11.20;99.90
29575;DHT22;16507;51.046;6.406;2022-10-31T05:25:11;11.20;99.90
29575;DHT22;16507;51.046;6.406;2022-10-31T05:27:42;11.20;99.90
29575;DHT22;16507;51.046;6.406;2022-10-31T05:30:09;11.20;99.90
29575;DHT22;16507;51.046;6.406;2022-10-31T05:32:42;11.10;99.90
29575;DHT22;16507;51.046;6.406;2022-10-31T05:35:12;11.10;99.90
29575;DHT22;16507;51.046;6.406;2022-10-31T05:37:38;11.10;99.90
29575;DHT22;16507;51.046;6.406;2022-10-31T05:40:05;11.10;99.90
29575;DHT22;16507;51.046;6.406;2022-10-31T05:42:31;11.10;99.90
29575;DHT22;16507;51.046;6.406;2022-10-31T05:44:57;11.20;99.90
29575;DHT22;16507;51.046;6.406;2022-10-31T05:47:23;11.20;99.90
29575;DHT22;16507;51.046;6.406;2022-10-31T05:49:48;11.20;99.90
29575;DHT22;16507;51.046;6.406;2022-10-31T05:52:14;11.30;99.90
29575;DHT22;16507;51.046;6.406;2022-10-31T05:54:40;11.40;99.90
29575;DHT22;16507;51.046;6.406;2022-10-31T05:57:06;11.40;99.90
29575;DHT22;16507;51.046;6.406;2022-10-31T05:59:31;11.50;99.90
29575;DHT22;16507;51.046;6.406;2022-10-31T06:01:57;11.50;99.90
29575;DHT22;16507;51.046;6.406;2022-10-31T06:04:23;11.70;99.90
29575;DHT22;16507;51.046;6.406;2022-10-31T06:06:48;11.70;99.90
29575;DHT22;16507;51.046;6.406;2022-10-31T06:09:14;11.60;99.90
29575;DHT22;16507;51.046;6.406;2022-10-31T06:11:40;11.60;99.90
29575;DHT22;16507;51.046;6.406;2022-10-31T06:14:06;11.70;99.90
29575;DHT22;16507;51.046;6.406;2022-10-31T06:16:31;11.70;99.90
29575;DHT22;16507;51.046;6.406;2022-10-31T06:18:57;11.80;99.90
29575;DHT22;16507;51.046;6.406;2022-10-31T06:21:23;11.90;99.90
29575;DHT22;16507;51.046;6.406;2022-10-31T06:23:48;12.00;99.90
29575;DHT22;16507;51.046;6.406;2022-10-31T06:26:14;12.10;99.90
29575;DHT22;16507;51.046;6.406;2022-10-31T06:28:39;12.10;99.90
29575;DHT22;16507;51.046;6.406;2022-10-31T06:31:05;12.20;99.90
29575;DHT22;16507;51.046;6.406;2022-10-31T06:33:31;12.10;99.90
29575;DHT22;16507;51.046;6.406;2022-10-31T06:35:56;12.10;99.90
29575;DHT22;16507;51.046;6.406;2022-10-31T06:38:22;12.10;99.90
29575;DHT22;16507;51.046;6.406;2022-10-31T06:40:48;12.10;99.90
29575;DHT22;16507;51.046;6.406;2022-10-31T06:43:13;12.10;99.90
29575;DHT22;16507;51.046;6.406;2022-10-31T06:45:40;12.00;99.90
29575;DHT22;16507;51.046;6.406;2022-10-31T06:48:06;12.00;99.90
29575;DHT22;16507;51.046;6.406;2022-10-31T06:50:31;11.90;99.90
29575;DHT22;16507;51.046;6.406;2022-10-31T06:52:58;11.80;99.90
29575;DHT22;16507;51.046;6.406;2022-10-31T06:55:25;11.70;99.90
29575;DHT22;16507;51.046;6.406;2022-10-31T06:58:00;11.60;99.90
29575;DHT22;16507;51.046;6.406;2022-10-31T07:00:28;11.60;99.90
29575;DHT22;16507;51.046;6.406;2022-10-31T07:03:06;11.50;99.90
29575;DHT22;16507;51.046;6.406;2022-10-31T07:05:32;11.60;99.90
29575;DHT22;16507;51.046;6.406;2022-10-31T07:08:00;11.50;99.90
29575;DHT22;16507;51.046;6.406;2022-10-31T07:10:28;11.50;99.90
29575;DHT22;16507;51.046;6.406;2022-10-31T07:13:05;11.50;99.90
29575;DHT22;16507;51.046;6.406;2022-10-31T07:15:36;11.60;99.90
29575;DHT22;16507;51.046;6.406;2022-10-31T07:18:03;11.60;99.90
29575;DHT22;16507;51.046;6.406;2022-10-31T07:20:30;11.60;99.90
29575;DHT22;16507;51.046;6.406;2022-10-31T07:22:57;11.80;99.90
29575;DHT22;16507;51.046;6.406;2022-10-31T07:25:24;11.80;99.90
29575;DHT22;16507;51.046;6.406;2022-10-31T07:27:49;11.90;99.90
29575;DHT22;16507;51.046;6.406;2022-10-31T07:30:15;11.80;99.90
29575;DHT22;16507;51.046;6.406;2022-10-31T07:32:45;11.90;99.90
29575;DHT22;16507;51.046;6.406;2022-10-31T07:35:14;12.00;99.90
29575;DHT22;16507;51.046;6.406;2022-10-31T07:37:39;12.00;99.90
29575;DHT22;16507;51.046;6.406;2022-10-31T07:40:07;12.10;99.90
29575;DHT22;16507;51.046;6.406;2022-10-31T07:42:41;12.10;99.90
29575;DHT22;16507;51.046;6.406;2022-10-31T07:45:09;12.20;99.90
29575;DHT22;16507;51.046;6.406;2022-10-31T07:47:41;12.30;99.90
29575;DHT22;16507;51.046;6.406;2022-10-31T07:50:08;12.40;99.90
29575;DHT22;16507;51.046;6.406;2022-10-31T07:52:34;12.40;99.90
29575;DHT22;16507;51.046;6.406;2022-10-31T07:55:01;12.50;99.90
29575;DHT22;16507;51.046;6.406;2022-10-31T07:57:28;12.50;99.90
29575;DHT22;16507;51.046;6.406;2022-10-31T07:59:53;12.60;99.90
29575;DHT22;16507;51.046;6.406;2022-10-31T08:02:19;12.60;99.90
29575;DHT22;16507;51.046;6.406;2022-10-31T08:04:44;12.70;99.90
29575;DHT22;16507;51.046;6.406;2022-10-31T08:07:10;12.90;99.90
29575;DHT22;16507;51.046;6.406;2022-10-31T08:09:36;13.00;99.90
29575;DHT22;16507;51.046;6.406;2022-10-31T08:12:01;13.10;99.90
29575;DHT22;16507;51.046;6.406;2022-10-31T08:14:27;13.20;99.90
29575;DHT22;16507;51.046;6.406;2022-10-31T08:16:53;13.30;99.90
29575;DHT22;16507;51.046;6.406;2022-10-31T08:19:19;13.30;99.90
29575;DHT22;16507;51.046;6.406;2022-10-31T08:21:45;13.40;99.90
29575;DHT22;16507;51.046;6.406;2022-10-31T08:24:11;13.40;99.90
29575;DHT22;16507;51.046;6.406;2022-10-31T08:26:36;13.50;99.90
29575;DHT22;16507;51.046;6.406;2022-10-31T08:29:02;13.60;99.90
29575;DHT22;16507;51.046;6.406;2022-10-31T08:31:29;13.60;99.90
29575;DHT22;16507;51.046;6.406;2022-10-31T08:33:54;13.60;99.90
29575;DHT22;16507;51.046;6.406;2022-10-31T08:36:20;13.60;99.90
29575;DHT22;16507;51.046;6.406;2022-10-31T08:38:47;13.60;99.90
29575;DHT22;16507;51.046;6.406;2022-10-31T08:41:13;13.60;99.90
29575;DHT22;16507;51.046;6.406;2022-10-31T08:43:39;13.60;99.90
29575;DHT22;16507;51.046;6.406;2022-10-31T08:46:04;13.60;99.90
29575;DHT22;16507;51.046;6.406;2022-10-31T08:48:30;13.80;99.90
29575;DHT22;16507;51.046;6.406;2022-10-31T08:50:58;13.70;99.90
29575;DHT22;16507;51.046;6.406;2022-10-31T08:53:24;13.90;99.90
29575;DHT22;16507;51.046;6.406;2022-10-31T08:55:50;14.00;99.90
29575;DHT22;16507;51.046;6.406;2022-10-31T08:58:17;14.00;99.90
29575;DHT22;16507;51.046;6.406;2022-10-31T09:00:45;14.10;99.90
29575;DHT22;16507;51.046;6.406;2022-10-31T09:03:13;14.20;99.90
29575;DHT22;16507;51.046;6.406;2022-10-31T09:05:39;14.20;99.90
29575;DHT22;16507;51.046;6.406;2022-10-31T09:08:06;14.40;99.90
29575;DHT22;16507;51.046;6.406;2022-10-31T09:10:34;14.40;99.90
29575;DHT22;16507;51.046;6.406;2022-10-31T09:13:02;14.70;99.90
29575;DHT22;16507;51.046;6.406;2022-10-31T09:15:31;14.80;99.90
29575;DHT22;16507;51.046;6.406;2022-10-31T09:17:57;15.10;99.90
29575;DHT22;16507;51.046;6.406;2022-10-31T09:20:23;15.10;99.90
29575;DHT22;16507;51.046;6.406;2022-10-31T09:22:56;15.20;99.90
29575;DHT22;16507;51.046;6.406;2022-10-31T09:25:22;15.30;99.90
29575;DHT22;16507;51.046;6.406;2022-10-31T09:27:48;15.30;99.90
29575;DHT22;16507;51.046;6.406;2022-10-31T09:30:14;15.40;99.90
29575;DHT22;16507;51.046;6.406;2022-10-31T09:32:39;15.50;99.90
29575;DHT22;16507;51.046;6.406;2022-10-31T09:35:05;15.70;99.90
29575;DHT22;16507;51.046;6.406;2022-10-31T09:37:31;15.90;99.90
29575;DHT22;16507;51.046;6.406;2022-10-31T09:39:56;15.80;99.90
29575;DHT22;16507;51.046;6.406;2022-10-31T09:42:33;15.70;99.90
29575;DHT22;16507;51.046;6.406;2022-10-31T09:45:07;15.80;99.90
29575;DHT22;16507;51.046;6.406;2022-10-31T09:48:03;15.90;99.90
29575;DHT22;16507;51.046;6.406;2022-10-31T09:50:37;16.00;99.90
29575;DHT22;16507;51.046;6.406;2022-10-31T09:55:46;16.10;99.90
29575;DHT22;16507;51.046;6.406;2022-10-31T09:58:20;16.30;99.90
29575;DHT22;16507;51.046;6.406;2022-10-31T10:00:47;16.50;99.90
29575;DHT22;16507;51.046;6.406;2022-10-31T10:03:43;16.70;99.90
29575;DHT22;16507;51.046;6.406;2022-10-31T10:06:19;16.70;99.90
29575;DHT22;16507;51.046;6.406;2022-10-31T10:08:46;16.60;99.90
29575;DHT22;16507;51.046;6.406;2022-10-31T10:14:18;16.60;99.90
29575;DHT22;16507;51.046;6.406;2022-10-31T10:17:31;16.70;99.90
29575;DHT22;16507;51.046;6.406;2022-10-31T10:22:54;16.70;99.90
29575;DHT22;16507;51.046;6.406;2022-10-31T10:25:25;16.90;99.90
29575;DHT22;16507;51.046;6.406;2022-10-31T10:27:57;16.30;99.90
29575;DHT22;16507;51.046;6.406;2022-10-31T10:30:41;16.20;99.90
29575;DHT22;16507;51.046;6.406;2022-10-31T10:33:28;16.10;99.90
29575;DHT22;16507;51.046;6.406;2022-10-31T10:36:00;16.30;99.90
29575;DHT22;16507;51.046;6.406;2022-10-31T10:41:02;16.50;99.90
29575;DHT22;16507;51.046;6.406;2022-10-31T10:43:35;16.50;99.90
29575;DHT22;16507;51.046;6.406;2022-10-31T10:51:47;16.80;99.90
29575;DHT22;16507;51.046;6.406;2022-10-31T10:54:56;17.00;99.90
29575;DHT22;16507;51.046;6.406;2022-10-31T11:00:20;16.90;99.90
29575;DHT22;16507;51.046;6.406;2022-10-31T11:02:46;17.00;99.90
29575;DHT22;16507;51.046;6.406;2022-10-31T11:07:56;17.20;99.90
29575;DHT22;16507;51.046;6.406;2022-10-31T11:10:22;17.10;99.90
29575;DHT22;16507;51.046;6.406;2022-10-31T11:16:02;17.10;99.90
29575;DHT22;16507;51.046;6.406;2022-10-31T11:18:31;17.20;99.90
29575;DHT22;16507;51.046;6.406;2022-10-31T11:20:59;17.30;99.90
29575;DHT22;16507;51.046;6.406;2022-10-31T11:23:27;17.30;99.90
29575;DHT22;16507;51.046;6.406;2022-10-31T11:26:00;17.50;99.90
29575;DHT22;16507;51.046;6.406;2022-10-31T11:28:28;17.60;99.90
29575;DHT22;16507;51.046;6.406;2022-10-31T11:31:08;17.60;99.90
29575;DHT22;16507;51.046;6.406;2022-10-31T11:33:46;17.80;99.90
29575;DHT22;16507;51.046;6.406;2022-10-31T11:36:16;18.00;99.90
29575;DHT22;16507;51.046;6.406;2022-10-31T11:38:44;18.10;99.90
29575;DHT22;16507;51.046;6.406;2022-10-31T11:41:15;18.20;99.90
29575;DHT22;16507;51.046;6.406;2022-10-31T11:43:50;18.30;99.90
29575;DHT22;16507;51.046;6.406;2022-10-31T11:46:25;18.30;99.90
29575;DHT22;16507;51.046;6.406;2022-10-31T11:48:55;18.40;99.90
29575;DHT22;16507;51.046;6.406;2022-10-31T11:51:24;18.40;99.90
29575;DHT22;16507;51.046;6.406;2022-10-31T11:53:52;18.40;99.90
29575;DHT22;16507;51.046;6.406;2022-10-31T11:56:18;18.50;99.90
29575;DHT22;16507;51.046;6.406;2022-10-31T11:58:55;18.30;99.90
29575;DHT22;16507;51.046;6.406;2022-10-31T12:01:26;18.30;99.90
29575;DHT22;16507;51.046;6.406;2022-10-31T12:04:11;18.20;99.90
29575;DHT22;16507;51.046;6.406;2022-10-31T12:06:39;18.20;99.90
29575;DHT22;16507;51.046;6.406;2022-10-31T12:17:19;18.20;99.90
29575;DHT22;16507;51.046;6.406;2022-10-31T12:39:06;18.80;99.90
29575;DHT22;16507;51.046;6.406;2022-10-31T12:47:20;18.40;99.90
29575;DHT22;16507;51.046;6.406;2022-10-31T12:49:59;18.20;99.90
29575;DHT22;16507;51.046;6.406;2022-10-31T12:57:56;17.90;99.90
29575;DHT22;16507;51.046;6.406;2022-10-31T13:00:24;17.80;99.90
29575;DHT22;16507;51.046;6.406;2022-10-31T13:02:56;17.80;99.90
29575;DHT22;16507;51.046;6.406;2022-10-31T13:05:44;17.80;99.90
29575;DHT22;16507;51.046;6.406;2022-10-31T13:08:20;17.80;99.90
29575;DHT22;16507;51.046;6.406;2022-10-31T13:18:57;18.00;99.90
29575;DHT22;16507;51.046;6.406;2022-10-31T13:21:36;18.00;99.90
29575;DHT22;16507;51.046;6.406;2022-10-31T13:24:05;18.10;99.90
29575;DHT22;16507;51.046;6.406;2022-10-31T13:26:50;18.10;99.90
29575;DHT22;16507;51.046;6.406;2022-10-31T13:31:51;18.40;99.90
29575;DHT22;16507;51.046;6.406;2022-10-31T13:42:53;17.80;99.90
29575;DHT22;16507;51.046;6.406;2022-10-31T13:45:23;17.60;99.90
29575;DHT22;16507;51.046;6.406;2022-10-31T13:47:59;17.60;99.90
29575;DHT22;16507;51.046;6.406;2022-10-31T13:50:30;17.50;99.90
29575;DHT22;16507;51.046;6.406;2022-10-31T13:53:19;17.40;99.90
29575;DHT22;16507;51.046;6.406;2022-10-31T13:55:50;17.40;99.90
29575;DHT22;16507;51.046;6.406;2022-10-31T13:58:31;17.40;99.90
29575;DHT22;16507;51.046;6.406;2022-10-31T14:01:06;17.20;99.90
29575;DHT22;16507;51.046;6.406;2022-10-31T14:03:40;17.20;99.90
29575;DHT22;16507;51.046;6.406;2022-10-31T14:06:08;17.20;99.90
29575;DHT22;16507;51.046;6.406;2022-10-31T14:08:41;17.20;99.90
29575;DHT22;16507;51.046;6.406;2022-10-31T14:11:08;17.20;99.90
29575;DHT22;16507;51.046;6.406;2022-10-31T14:13:44;17.20;99.90
29575;DHT22;16507;51.046;6.406;2022-10-31T14:16:25;17.20;99.90
29575;DHT22;16507;51.046;6.406;2022-10-31T14:18:59;17.20;99.90
29575;DHT22;16507;51.046;6.406;2022-10-31T14:21:28;17.20;99.90
29575;DHT22;16507;51.046;6.406;2022-10-31T14:23:55;17.20;99.90
29575;DHT22;16507;51.046;6.406;2022-10-31T14:26:32;17.20;99.90
29575;DHT22;16507;51.046;6.406;2022-10-31T14:31:45;17.40;99.90
29575;DHT22;16507;51.046;6.406;2022-10-31T14:34:34;17.40;99.90
29575;DHT22;16507;51.046;6.406;2022-10-31T14:51:01;18.50;99.90
29575;DHT22;16507;51.046;6.406;2022-10-31T14:53:54;18.60;99.90
29575;DHT22;16507;51.046;6.406;2022-10-31T14:56:31;18.60;99.90
29575;DHT22;16507;51.046;6.406;2022-10-31T14:59:01;18.70;99.90
29575;DHT22;16507;51.046;6.406;2022-10-31T15:01:33;18.80;99.90
29575;DHT22;16507;51.046;6.406;2022-10-31T15:04:15;18.70;99.90
29575;DHT22;16507;51.046;6.406;2022-10-31T15:06:49;18.80;99.90
29575;DHT22;16507;51.046;6.406;2022-10-31T15:09:33;18.80;99.90
29575;DHT22;16507;51.046;6.406;2022-10-31T15:12:00;18.70;99.90
29575;DHT22;16507;51.046;6.406;2022-10-31T15:14:28;18.60;99.90
29575;DHT22;16507;51.046;6.406;2022-10-31T15:16:59;18.40;99.90
29575;DHT22;16507;51.046;6.406;2022-10-31T15:19:29;18.10;99.90
29575;DHT22;16507;51.046;6.406;2022-10-31T15:21:56;17.80;99.90
29575;DHT22;16507;51.046;6.406;2022-10-31T15:24:28;17.60;99.90
29575;DHT22;16507;51.046;6.406;2022-10-31T15:26:55;17.50;99.90
29575;DHT22;16507;51.046;6.406;2022-10-31T15:29:23;17.20;99.90
29575;DHT22;16507;51.046;6.406;2022-10-31T15:31:50;17.10;99.90
29575;DHT22;16507;51.046;6.406;2022-10-31T15:36:48;16.80;99.90
29575;DHT22;16507;51.046;6.406;2022-10-31T15:39:16;16.70;99.90
29575;DHT22;16507;51.046;6.406;2022-10-31T15:41:54;16.60;99.90
29575;DHT22;16507;51.046;6.406;2022-10-31T15:44:29;16.50;99.90
29575;DHT22;16507;51.046;6.406;2022-10-31T15:47:01;16.40;99.90
29575;DHT22;16507;51.046;6.406;2022-10-31T15:49:39;16.20;99.90
29575;DHT22;16507;51.046;6.406;2022-10-31T15:52:32;16.20;99.90
29575;DHT22;16507;51.046;6.406;2022-10-31T15:55:00;16.10;99.90
29575;DHT22;16507;51.046;6.406;2022-10-31T15:57:26;16.00;99.90
29575;DHT22;16507;51.046;6.406;2022-10-31T15:59:52;15.80;99.90
29575;DHT22;16507;51.046;6.406;2022-10-31T16:02:23;15.80;99.90
29575;DHT22;16507;51.046;6.406;2022-10-31T16:04:59;15.70;99.90
29575;DHT22;16507;51.046;6.406;2022-10-31T16:07:27;15.60;99.90
29575;DHT22;16507;51.046;6.406;2022-10-31T16:10:02;15.60;99.90
29575;DHT22;16507;51.046;6.406;2022-10-31T16:12:37;15.60;99.90
29575;DHT22;16507;51.046;6.406;2022-10-31T16:15:04;15.50;99.90
29575;DHT22;16507;51.046;6.406;2022-10-31T16:17:30;15.50;99.90
29575;DHT22;16507;51.046;6.406;2022-10-31T16:20:04;15.40;99.90
29575;DHT22;16507;51.046;6.406;2022-10-31T16:22:36;15.40;99.90
29575;DHT22;16507;51.046;6.406;2022-10-31T16:27:35;15.30;99.90
29575;DHT22;16507;51.046;6.406;2022-10-31T16:30:23;15.30;99.90
29575;DHT22;16507;51.046;6.406;2022-10-31T16:32:59;15.30;99.90
29575;DHT22;16507;51.046;6.406;2022-10-31T16:35:35;15.40;99.90
29575;DHT22;16507;51.046;6.406;2022-10-31T16:38:02;15.40;99.90
29575;DHT22;16507;51.046;6.406;2022-10-31T16:40:28;15.40;99.90
29575;DHT22;16507;51.046;6.406;2022-10-31T16:42:57;15.50;99.90
29575;DHT22;16507;51.046;6.406;2022-10-31T16:45:26;15.60;99.90
29575;DHT22;16507;51.046;6.406;2022-10-31T16:47:52;15.60;99.90
29575;DHT22;16507;51.046;6.406;2022-10-31T16:50:26;15.60;99.90
29575;DHT22;16507;51.046;6.406;2022-10-31T16:52:52;15.60;99.90
29575;DHT22;16507;51.046;6.406;2022-10-31T16:55:19;15.60;99.90
29575;DHT22;16507;51.046;6.406;2022-10-31T16:57:48;15.60;99.90
29575;DHT22;16507;51.046;6.406;2022-10-31T17:00:17;15.60;99.90
29575;DHT22;16507;51.046;6.406;2022-10-31T17:02:44;15.60;99.90
29575;DHT22;16507;51.046;6.406;2022-10-31T17:05:12;15.70;99.90
29575;DHT22;16507;51.046;6.406;2022-10-31T17:07:38;15.60;99.90
29575;DHT22;16507;51.046;6.406;2022-10-31T17:10:05;15.70;99.90
29575;DHT22;16507;51.046;6.406;2022-10-31T17:12:30;15.60;99.90
29575;DHT22;16507;51.046;6.406;2022-10-31T17:14:56;15.70;99.90
29575;DHT22;16507;51.046;6.406;2022-10-31T17:17:22;15.70;99.90
29575;DHT22;16507;51.046;6.406;2022-10-31T17:19:47;15.70;99.90
29575;DHT22;16507;51.046;6.406;2022-10-31T17:22:14;15.70;99.90
29575;DHT22;16507;51.046;6.406;2022-10-31T17:24:39;15.60;99.90
29575;DHT22;16507;51.046;6.406;2022-10-31T17:27:05;15.60;99.90
29575;DHT22;16507;51.046;6.406;2022-10-31T17:29:31;15.60;99.90
29575;DHT22;16507;51.046;6.406;2022-10-31T17:31:57;15.60;99.90
29575;DHT22;16507;51.046;6.406;2022-10-31T17:34:24;15.60;99.90
29575;DHT22;16507;51.046;6.406;2022-10-31T17:36:51;15.50;99.90
29575;DHT22;16507;51.046;6.406;2022-10-31T17:39:17;15.50;99.90
29575;DHT22;16507;51.046;6.406;2022-10-31T17:41:43;15.40;99.90
29575;DHT22;16507;51.046;6.406;2022-10-31T17:44:10;15.40;99.90
29575;DHT22;16507;51.046;6.406;2022-10-31T17:46:36;15.30;99.90
29575;DHT22;16507;51.046;6.406;2022-10-31T17:49:02;15.20;99.90
29575;DHT22;16507;51.046;6.406;2022-10-31T17:51:30;15.10;99.90
29575;DHT22;16507;51.046;6.406;2022-10-31T17:53:56;15.00;99.90